Time;durP1;ratioP1;P1;durP2;ratioP2;P2;SDS_P1;SDS_P2;PMS_P1;PMS_P2;Temp;Humidity;BMP_temperature;BMP_pressure;BME280_temperature;BME280_humidity;BME280_pressure;Samples;Min_cycle;Max_cycle;Signal;HPM_P1;HPM_P2
2024/01/25 00:00:50;;;;;;;11.13;2.88;;;10.90;79.20;;;;;;5092255;28;20040;-74
2024/01/25 00:03:15;;;;;;;13.13;2.70;;;10.90;79.30;;;;;;5092992;28;20041;-74
2024/01/25 00:05:41;;;;;;;13.95;2.83;;;10.90;79.40;;;;;;5092558;28;20043;-73
2024/01/25 00:08:07;;;;;;;9.27;2.15;;;10.90;79.30;;;;;;5091668;28;20028;-74
2024/01/25 00:10:33;;;;;;;9.77;2.05;;;10.90;79.50;;;;;;5092469;28;20023;-74
2024/01/25 00:12:58;;;;;;;13.82;2.95;;;10.90;79.20;;;;;;5092334;28;20109;-74
2024/01/25 00:15:24;;;;;;;14.85;2.50;;;10.90;79.00;;;;;;5092148;28;20508;-74
2024/01/25 00:17:49;;;;;;;13.35;3.13;;;10.90;78.90;;;;;;5098999;28;20020;-74
2024/01/25 00:20:15;;;;;;;12.77;2.35;;;10.90;78.90;;;;;;5112940;28;20048;-73
2024/01/25 00:22:41;;;;;;;12.55;2.50;;;10.80;79.00;;;;;;5112490;28;20031;-74
2024/01/25 00:25:07;;;;;;;15.40;2.20;;;10.90;79.00;;;;;;5099954;28;20028;-74
2024/01/25 00:27:33;;;;;;;12.18;2.15;;;10.90;79.20;;;;;;5091691;28;20484;-74
2024/01/25 00:29:58;;;;;;;7.35;2.35;;;10.80;79.30;;;;;;5091586;28;20039;-74
2024/01/25 00:32:24;;;;;;;15.07;2.58;;;10.80;79.70;;;;;;5091923;28;20093;-74
2024/01/25 00:34:50;;;;;;;11.15;2.03;;;10.80;79.40;;;;;;5091875;28;20028;-74
2024/01/25 00:37:16;;;;;;;12.98;2.58;;;10.80;79.30;;;;;;5091904;28;20069;-74
2024/01/25 00:39:42;;;;;;;9.25;2.10;;;10.80;79.30;;;;;;5091622;28;20084;-74
2024/01/25 00:42:12;;;;;;;11.13;2.70;;;10.80;79.50;;;;;;5092467;28;20368;-74
2024/01/25 00:44:37;;;;;;;9.20;2.22;;;10.80;79.80;;;;;;5090737;28;20124;-73
2024/01/25 00:47:03;;;;;;;11.80;2.40;;;10.80;79.70;;;;;;5092235;28;20103;-74
2024/01/25 00:49:29;;;;;;;10.25;2.58;;;10.70;79.90;;;;;;5091413;28;20657;-74
2024/01/25 00:52:00;;;;;;;12.90;2.50;;;10.70;79.80;;;;;;5090982;28;20059;-75
2024/01/25 00:54:26;;;;;;;10.87;2.00;;;10.70;79.90;;;;;;5090322;28;20131;-74
2024/01/25 00:56:52;;;;;;;13.65;2.20;;;10.70;80.00;;;;;;5090943;28;20032;-74
2024/01/25 00:59:19;;;;;;;10.65;2.78;;;10.70;79.70;;;;;;5089563;28;20499;-74
2024/01/25 01:01:47;;;;;;;8.27;1.90;;;10.70;79.90;;;;;;5090454;28;20062;-73
2024/01/25 01:04:14;;;;;;;9.55;2.30;;;10.70;79.60;;;;;;5091559;28;20035;-74
2024/01/25 01:06:40;;;;;;;11.52;2.70;;;10.70;79.20;;;;;;5091195;28;20032;-74
2024/01/25 01:09:06;;;;;;;12.70;2.53;;;10.70;79.20;;;;;;5091708;28;20016;-74
2024/01/25 01:11:31;;;;;;;14.30;4.03;;;10.70;79.20;;;;;;5090126;28;20357;-74
2024/01/25 01:13:57;;;;;;;9.68;2.28;;;10.70;79.50;;;;;;5090611;28;20035;-73
2024/01/25 01:16:23;;;;;;;15.55;2.42;;;10.70;79.10;;;;;;5090990;28;20043;-73
2024/01/25 01:18:48;;;;;;;10.80;2.25;;;10.60;79.40;;;;;;5091019;28;20043;-74
2024/01/25 01:21:14;;;;;;;10.57;2.22;;;10.60;79.40;;;;;;5090998;28;20068;-73
2024/01/25 01:23:40;;;;;;;14.93;2.80;;;10.60;79.30;;;;;;5091391;28;20105;-74
2024/01/25 01:26:05;;;;;;;15.68;3.00;;;10.60;78.70;;;;;;5091006;28;20034;-74
2024/01/25 01:28:31;;;;;;;13.93;2.58;;;10.60;78.30;;;;;;5091280;28;20028;-74
2024/01/25 01:30:57;;;;;;;13.40;2.28;;;10.60;78.60;;;;;;5091076;28;20039;-74
2024/01/25 01:33:22;;;;;;;10.13;2.10;;;10.60;78.60;;;;;;5091423;28;20110;-75
2024/01/25 01:35:48;;;;;;;16.58;3.03;;;10.60;78.40;;;;;;5091069;28;20032;-75
2024/01/25 01:38:14;;;;;;;9.60;2.25;;;10.60;78.40;;;;;;5091928;28;20024;-74
2024/01/25 01:40:39;;;;;;;16.48;2.95;;;10.50;78.20;;;;;;5091318;28;20081;-73
2024/01/25 01:43:05;;;;;;;11.18;2.20;;;10.50;78.60;;;;;;5091396;28;20024;-73
2024/01/25 01:45:31;;;;;;;12.20;2.72;;;10.50;78.40;;;;;;5091227;28;20051;-74
2024/01/25 01:47:58;;;;;;;11.65;2.90;;;10.50;78.50;;;;;;5090839;28;20112;-74
2024/01/25 01:50:24;;;;;;;13.90;2.67;;;10.50;78.30;;;;;;5091363;28;20035;-74
2024/01/25 01:52:50;;;;;;;10.10;2.45;;;10.50;78.30;;;;;;5091080;28;20384;-74
2024/01/25 01:55:17;;;;;;;11.77;2.53;;;10.50;78.30;;;;;;5091017;28;20036;-74
2024/01/25 01:57:45;;;;;;;12.00;2.75;;;10.50;78.60;;;;;;5090129;28;20303;-74
2024/01/25 02:00:14;;;;;;;16.33;2.53;;;10.50;78.40;;;;;;5091729;28;20032;-75
2024/01/25 02:02:40;;;;;;;11.35;2.65;;;10.50;78.40;;;;;;5091510;28;20097;-74
2024/01/25 02:05:05;;;;;;;11.63;2.70;;;10.40;78.00;;;;;;5090717;28;20032;-74
2024/01/25 02:07:31;;;;;;;13.52;3.47;;;10.40;78.10;;;;;;5091009;28;20435;-74
2024/01/25 02:09:57;;;;;;;13.82;2.80;;;10.40;78.00;;;;;;5090860;28;20472;-74
2024/01/25 02:12:22;;;;;;;16.17;2.70;;;10.40;78.00;;;;;;5091328;28;20016;-74
2024/01/25 02:14:48;;;;;;;17.17;2.70;;;10.40;78.00;;;;;;5089052;28;20124;-74
2024/01/25 02:17:14;;;;;;;10.65;2.22;;;10.40;78.30;;;;;;5091130;28;20521;-74
2024/01/25 02:19:39;;;;;;;10.02;2.20;;;10.40;78.20;;;;;;5106141;28;20027;-74
2024/01/25 02:22:06;;;;;;;12.68;2.47;;;10.40;78.60;;;;;;5115019;28;20396;-74
2024/01/25 02:24:31;;;;;;;16.30;2.92;;;10.40;78.70;;;;;;5115251;28;20031;-74
2024/01/25 02:26:57;;;;;;;10.82;2.85;;;10.30;78.50;;;;;;5114692;28;20464;-75
2024/01/25 02:29:23;;;;;;;18.55;3.55;;;10.30;78.30;;;;;;5114875;28;20027;-75
2024/01/25 02:31:49;;;;;;;15.05;3.15;;;10.30;79.00;;;;;;5114923;28;20027;-74
2024/01/25 02:34:14;;;;;;;17.30;2.42;;;10.30;78.60;;;;;;5114910;28;20034;-74
2024/01/25 02:36:40;;;;;;;12.38;2.13;;;10.30;78.80;;;;;;5114981;28;20031;-74
2024/01/25 02:39:06;;;;;;;15.35;2.28;;;10.30;78.80;;;;;;5114183;28;20047;-74
2024/01/25 02:41:32;;;;;;;12.20;2.63;;;10.40;78.80;;;;;;5114990;28;20023;-74
2024/01/25 02:43:59;;;;;;;10.30;2.50;;;10.30;78.70;;;;;;5114253;28;20027;-74
2024/01/25 02:46:25;;;;;;;11.10;2.47;;;10.30;78.70;;;;;;5114766;28;20361;-74
2024/01/25 02:48:51;;;;;;;11.63;2.20;;;10.30;78.60;;;;;;5114150;28;20027;-74
2024/01/25 02:51:16;;;;;;;14.93;3.38;;;10.30;78.80;;;;;;5114800;28;20095;-74
2024/01/25 02:53:42;;;;;;;11.70;2.17;;;10.30;79.00;;;;;;5114784;28;20028;-74
2024/01/25 02:56:07;;;;;;;11.65;2.40;;;10.30;78.80;;;;;;5113620;28;20039;-73
2024/01/25 02:58:33;;;;;;;12.10;3.20;;;10.20;78.40;;;;;;5114410;28;20059;-75
2024/01/25 03:00:59;;;;;;;11.90;2.53;;;10.20;78.50;;;;;;5113518;28;20051;-74
2024/01/25 03:03:24;;;;;;;17.15;2.80;;;10.30;78.30;;;;;;5112938;28;20030;-75
2024/01/25 03:05:53;;;;;;;14.82;3.42;;;10.20;78.40;;;;;;5093368;28;20435;-74
2024/01/25 03:08:19;;;;;;;16.48;3.03;;;10.20;78.20;;;;;;5093547;28;20133;-74
2024/01/25 03:10:46;;;;;;;14.85;2.92;;;10.20;77.80;;;;;;5093487;28;20051;-74
2024/01/25 03:13:11;;;;;;;10.05;2.30;;;10.20;78.00;;;;;;5093034;28;20388;-74
2024/01/25 03:15:37;;;;;;;15.55;2.42;;;10.20;77.30;;;;;;5093275;28;20035;-74
2024/01/25 03:18:03;;;;;;;14.18;2.85;;;10.20;77.30;;;;;;5093460;28;20020;-74
2024/01/25 03:20:29;;;;;;;13.90;2.47;;;10.20;77.20;;;;;;5093488;28;20115;-74
2024/01/25 03:22:55;;;;;;;13.25;2.90;;;10.20;77.20;;;;;;5092998;28;20138;-75
2024/01/25 03:25:21;;;;;;;13.43;2.13;;;10.20;76.60;;;;;;5092231;28;20028;-74
2024/01/25 03:27:46;;;;;;;14.63;2.92;;;10.20;76.40;;;;;;5092217;28;20039;-75
2024/01/25 03:30:12;;;;;;;15.25;2.40;;;10.20;76.80;;;;;;5092906;28;20032;-74
2024/01/25 03:32:38;;;;;;;13.55;2.35;;;10.20;77.20;;;;;;5093672;28;20424;-74
2024/01/25 03:35:04;;;;;;;15.23;2.78;;;10.20;77.60;;;;;;5092700;28;20024;-73
2024/01/25 03:37:29;;;;;;;11.43;1.83;;;10.20;78.00;;;;;;5093428;28;20073;-74
2024/01/25 03:39:55;;;;;;;10.07;2.38;;;10.20;78.10;;;;;;5092643;28;20055;-75
2024/01/25 03:42:20;;;;;;;15.35;2.90;;;10.20;78.50;;;;;;5093271;28;20020;-74
2024/01/25 03:44:47;;;;;;;10.63;1.98;;;10.10;78.70;;;;;;5093202;28;20488;-75
2024/01/25 03:47:12;;;;;;;12.98;2.15;;;10.20;79.10;;;;;;5092725;28;20354;-74
2024/01/25 03:49:38;;;;;;;13.52;2.15;;;10.10;79.50;;;;;;5093106;28;20040;-74
2024/01/25 03:52:04;;;;;;;12.77;2.53;;;10.10;79.10;;;;;;5093018;28;20409;-74
2024/01/25 03:54:30;;;;;;;13.90;3.70;;;10.10;79.40;;;;;;5092896;28;20043;-75
2024/01/25 03:56:56;;;;;;;10.13;2.50;;;10.10;80.10;;;;;;5092582;28;20032;-75
2024/01/25 03:59:21;;;;;;;13.38;2.67;;;10.10;80.00;;;;;;5092868;28;20138;-74
2024/01/25 04:01:47;;;;;;;12.60;2.47;;;10.00;80.50;;;;;;5092927;28;20400;-74
2024/01/25 04:04:15;;;;;;;14.00;2.42;;;10.00;80.80;;;;;;5092628;28;20108;-74
2024/01/25 04:06:48;;;;;;;10.93;2.78;;;10.00;80.90;;;;;;5092775;28;20495;-75
2024/01/25 04:09:15;;;;;;;11.30;2.55;;;10.00;81.90;;;;;;5092441;28;20496;-74
2024/01/25 04:11:40;;;;;;;14.65;2.25;;;10.00;81.60;;;;;;5092659;28;20032;-74
2024/01/25 04:14:06;;;;;;;15.43;2.85;;;10.00;81.80;;;;;;5090677;28;20020;-75
2024/01/25 04:16:33;;;;;;;13.15;2.38;;;10.00;81.90;;;;;;5103755;28;20497;-74
2024/01/25 04:18:59;;;;;;;12.23;2.78;;;10.00;82.10;;;;;;5112608;28;20020;-74
2024/01/25 04:21:24;;;;;;;13.18;2.13;;;9.90;81.40;;;;;;5111537;28;20107;-75
2024/01/25 04:23:50;;;;;;;14.00;2.58;;;9.90;81.70;;;;;;5113158;28;20094;-74
2024/01/25 04:26:16;;;;;;;14.48;2.20;;;9.90;81.40;;;;;;5112561;28;20524;-74
2024/01/25 04:28:42;;;;;;;13.30;2.92;;;9.90;81.50;;;;;;5111528;28;20390;-75
2024/01/25 04:31:08;;;;;;;18.88;3.03;;;9.90;81.70;;;;;;5112344;28;20028;-74
2024/01/25 04:33:33;;;;;;;12.60;2.65;;;9.90;81.80;;;;;;5112691;28;20019;-74
2024/01/25 04:35:59;;;;;;;14.13;2.78;;;9.90;81.30;;;;;;5112151;28;20039;-74
2024/01/25 04:38:25;;;;;;;20.73;3.47;;;9.90;81.10;;;;;;5112156;28;20027;-74
2024/01/25 04:40:50;;;;;;;15.13;2.67;;;9.90;81.20;;;;;;5111841;28;20065;-74
2024/01/25 04:43:16;;;;;;;14.35;3.45;;;9.80;81.70;;;;;;5112035;28;20039;-75
2024/01/25 04:45:42;;;;;;;19.58;2.95;;;9.90;81.40;;;;;;5112176;28;20463;-73
2024/01/25 04:48:08;;;;;;;12.32;2.58;;;9.90;81.50;;;;;;5111978;28;20024;-73
2024/01/25 04:50:34;;;;;;;13.70;2.47;;;9.90;81.70;;;;;;5111124;28;20403;-75
2024/01/25 04:53:02;;;;;;;15.80;3.17;;;9.80;81.50;;;;;;5112403;28;20438;-75
2024/01/25 04:55:27;;;;;;;13.10;2.40;;;9.90;81.80;;;;;;5112263;28;20365;-75
2024/01/25 04:57:53;;;;;;;18.95;2.53;;;9.80;81.70;;;;;;5112156;28;20053;-74
2024/01/25 05:00:21;;;;;;;11.93;2.13;;;9.80;81.80;;;;;;5093892;28;20024;-74
2024/01/25 05:02:47;;;;;;;12.73;2.20;;;9.80;81.80;;;;;;5092230;28;20399;-74
2024/01/25 05:05:13;;;;;;;15.30;2.92;;;9.90;81.70;;;;;;5090136;28;20028;-73
2024/01/25 05:07:38;;;;;;;12.65;3.38;;;9.80;82.10;;;;;;5091529;28;20099;-74
2024/01/25 05:10:04;;;;;;;13.40;3.80;;;9.80;82.10;;;;;;5091341;28;20024;-74
2024/01/25 05:12:30;;;;;;;18.20;3.28;;;9.80;81.90;;;;;;5090488;28;20031;-74
2024/01/25 05:14:56;;;;;;;15.90;2.92;;;9.80;82.10;;;;;;5091694;28;20028;-74
2024/01/25 05:17:21;;;;;;;14.48;2.95;;;9.80;82.00;;;;;;5091132;28;20039;-75
2024/01/25 05:19:47;;;;;;;12.15;2.58;;;9.80;82.20;;;;;;5091520;28;20453;-74
2024/01/25 05:22:13;;;;;;;13.10;2.80;;;9.80;82.20;;;;;;5091135;28;20028;-75
2024/01/25 05:24:38;;;;;;;16.63;3.00;;;9.80;82.10;;;;;;5090486;28;20393;-74
2024/01/25 05:27:04;;;;;;;19.10;3.97;;;9.80;82.60;;;;;;5091220;28;20024;-75
2024/01/25 05:29:29;;;;;;;14.27;2.80;;;9.80;81.90;;;;;;5091718;28;20020;-75
2024/01/25 05:31:55;;;;;;;12.07;4.15;;;9.80;82.10;;;;;;5091744;28;20031;-74
2024/01/25 05:34:21;;;;;;;14.65;2.67;;;9.80;82.20;;;;;;5089839;28;20107;-75
2024/01/25 05:36:47;;;;;;;10.70;2.50;;;9.80;82.10;;;;;;5091059;28;20085;-74
2024/01/25 05:39:13;;;;;;;15.98;2.38;;;9.80;82.20;;;;;;5089071;28;20024;-74
2024/01/25 05:41:39;;;;;;;17.90;3.00;;;9.80;82.40;;;;;;5090036;28;20024;-75
2024/01/25 05:44:05;;;;;;;15.13;2.83;;;9.80;82.40;;;;;;5091014;28;20060;-75
2024/01/25 05:46:30;;;;;;;13.55;2.58;;;9.80;82.60;;;;;;5091440;28;20480;-74
2024/01/25 05:48:56;;;;;;;14.23;2.90;;;9.70;82.60;;;;;;5091398;28;20453;-74
2024/01/25 05:51:22;;;;;;;13.43;3.03;;;9.80;82.50;;;;;;5091124;28;20023;-74
2024/01/25 05:53:47;;;;;;;15.30;2.75;;;9.80;82.60;;;;;;5095138;28;20024;-73
2024/01/25 05:56:13;;;;;;;15.57;3.30;;;9.70;82.40;;;;;;5093066;28;20491;-74
2024/01/25 05:58:39;;;;;;;18.50;4.78;;;9.70;82.50;;;;;;5093588;28;20032;-75
2024/01/25 06:01:06;;;;;;;13.75;2.65;;;9.70;82.80;;;;;;5094635;28;20060;-74
2024/01/25 06:03:32;;;;;;;13.18;2.92;;;9.70;82.70;;;;;;5094582;28;20050;-74
2024/01/25 06:05:57;;;;;;;15.13;3.22;;;9.70;82.90;;;;;;5094910;28;20032;-74
2024/01/25 06:08:23;;;;;;;13.32;2.83;;;9.70;82.90;;;;;;5100924;28;20480;-74
2024/01/25 06:10:48;;;;;;;12.38;3.08;;;9.60;82.70;;;;;;5115337;28;20077;-75
2024/01/25 06:13:14;;;;;;;16.83;2.97;;;9.70;82.90;;;;;;5114869;28;20456;-75
2024/01/25 06:15:40;;;;;;;16.42;3.95;;;9.60;83.00;;;;;;5115146;28;20031;-75
2024/01/25 06:18:06;;;;;;;15.93;2.55;;;9.60;82.90;;;;;;5115053;28;20024;-75
2024/01/25 06:20:32;;;;;;;17.00;3.17;;;9.60;83.00;;;;;;5097348;28;20111;-74
2024/01/25 06:22:58;;;;;;;10.32;3.00;;;9.60;83.00;;;;;;5093481;28;20028;-75
2024/01/25 06:25:23;;;;;;;13.32;2.78;;;9.60;82.90;;;;;;5094081;28;20040;-75
2024/01/25 06:27:49;;;;;;;15.65;3.30;;;9.50;83.10;;;;;;5094491;28;20511;-75
2024/01/25 06:30:15;;;;;;;16.13;3.03;;;9.50;83.30;;;;;;5094185;28;20047;-73
2024/01/25 06:32:40;;;;;;;15.70;2.95;;;9.50;83.30;;;;;;5093180;28;20368;-74
2024/01/25 06:35:06;;;;;;;12.60;2.80;;;9.50;83.50;;;;;;5093828;28;20024;-75
2024/01/25 06:37:32;;;;;;;26.73;4.05;;;9.50;83.60;;;;;;5094392;28;20028;-74
2024/01/25 06:39:58;;;;;;;13.90;3.05;;;9.50;83.60;;;;;;5094741;28;20103;-74
2024/01/25 06:42:24;;;;;;;13.77;2.67;;;9.50;83.80;;;;;;5093796;28;20109;-75
2024/01/25 06:44:49;;;;;;;22.30;3.67;;;9.50;83.80;;;;;;5094126;28;20417;-75
2024/01/25 06:47:15;;;;;;;18.35;3.08;;;9.40;84.00;;;;;;5093419;28;20030;-74
2024/01/25 06:49:41;;;;;;;13.07;2.78;;;9.40;84.20;;;;;;5094061;28;20090;-74
2024/01/25 06:52:06;;;;;;;12.20;2.60;;;9.40;84.30;;;;;;5093555;28;20039;-74
2024/01/25 06:54:32;;;;;;;8.57;2.47;;;9.40;84.30;;;;;;5093673;28;20024;-75
2024/01/25 06:56:58;;;;;;;16.40;2.67;;;9.40;84.50;;;;;;5093549;28;20036;-74
2024/01/25 06:59:24;;;;;;;26.75;2.85;;;9.40;84.30;;;;;;5093184;28;20304;-75
2024/01/25 07:01:50;;;;;;;11.35;2.83;;;9.40;84.30;;;;;;5093924;28;20051;-75
2024/01/25 07:04:15;;;;;;;13.35;2.95;;;9.40;84.50;;;;;;5093064;28;20016;-71
2024/01/25 07:06:41;;;;;;;15.68;3.10;;;9.40;84.60;;;;;;5093896;28;20099;-71
2024/01/25 07:09:07;;;;;;;17.08;3.70;;;9.40;84.60;;;;;;5093074;28;20334;-70
2024/01/25 07:11:33;;;;;;;16.80;3.40;;;9.40;84.60;;;;;;5093686;28;20414;-73
2024/01/25 07:13:58;;;;;;;15.10;3.13;;;9.40;84.40;;;;;;5093713;28;20040;-72
2024/01/25 07:16:24;;;;;;;13.93;3.70;;;9.40;84.60;;;;;;5092845;28;20040;-71
2024/01/25 07:18:50;;;;;;;18.90;2.80;;;9.40;84.50;;;;;;5093485;28;20068;-72
2024/01/25 07:21:15;;;;;;;17.92;3.00;;;9.40;84.80;;;;;;5093193;28;20020;-72
2024/01/25 07:23:41;;;;;;;11.00;2.60;;;9.40;84.80;;;;;;5093358;28;20077;-72
2024/01/25 07:26:07;;;;;;;11.18;2.78;;;9.40;84.60;;;;;;5093203;28;20103;-73
2024/01/25 07:28:32;;;;;;;13.93;3.38;;;9.40;84.50;;;;;;5093534;28;20024;-72
2024/01/25 07:30:58;;;;;;;17.65;2.78;;;9.40;84.60;;;;;;5093053;28;20082;-73
2024/01/25 07:33:24;;;;;;;18.17;3.28;;;9.50;84.30;;;;;;5092738;28;20499;-73
2024/01/25 07:35:50;;;;;;;18.60;3.60;;;9.50;84.00;;;;;;5093060;28;20036;-72
2024/01/25 07:38:16;;;;;;;14.95;2.35;;;9.50;84.50;;;;;;5092477;28;20050;-73
2024/01/25 07:40:42;;;;;;;15.07;2.95;;;9.50;84.10;;;;;;5093238;28;20111;-73
2024/01/25 07:43:08;;;;;;;16.15;3.20;;;9.50;84.30;;;;;;5092458;28;20505;-73
2024/01/25 07:45:33;;;;;;;16.63;2.80;;;9.50;84.50;;;;;;5092775;28;20024;-73
2024/01/25 07:47:59;;;;;;;11.70;2.58;;;9.50;84.40;;;;;;5093032;28;20062;-72
2024/01/25 07:50:25;;;;;;;15.10;4.05;;;9.50;84.70;;;;;;5092564;28;20133;-72
2024/01/25 07:52:50;;;;;;;14.70;3.22;;;9.50;84.40;;;;;;5093204;28;20028;-73
2024/01/25 07:55:17;;;;;;;18.27;3.95;;;9.60;83.80;;;;;;5091205;28;20051;-73
2024/01/25 07:57:42;;;;;;;18.15;3.13;;;9.60;83.40;;;;;;5092774;28;20024;-73
2024/01/25 08:00:09;;;;;;;18.10;2.95;;;9.50;83.60;;;;;;5092450;28;20472;-73
2024/01/25 08:02:36;;;;;;;14.40;2.45;;;9.60;83.70;;;;;;5092078;28;20047;-72
2024/01/25 08:05:01;;;;;;;20.80;3.88;;;9.60;83.60;;;;;;5093721;28;20024;-73
2024/01/25 08:07:28;;;;;;;10.25;2.72;;;9.60;83.30;;;;;;5110876;28;20036;-72
2024/01/25 08:09:57;;;;;;;15.63;3.20;;;9.60;82.50;;;;;;5112920;28;20110;-72
2024/01/25 08:12:24;;;;;;;16.42;2.83;;;9.60;81.60;;;;;;5112726;28;20028;-73
2024/01/25 08:14:50;;;;;;;20.27;3.38;;;9.60;81.60;;;;;;5112306;28;20111;-73
2024/01/25 08:17:15;;;;;;;14.93;2.95;;;9.60;81.50;;;;;;5112266;28;20520;-73
2024/01/25 08:19:41;;;;;;;14.27;3.60;;;9.60;80.40;;;;;;5112942;28;20039;-72
2024/01/25 08:22:07;;;;;;;13.18;3.47;;;9.60;79.50;;;;;;5112412;28;20032;-72
2024/01/25 08:24:33;;;;;;;21.23;3.60;;;9.60;79.30;;;;;;5103024;28;20031;-72
2024/01/25 08:26:58;;;;;;;13.07;2.90;;;9.60;78.90;;;;;;5092096;28;20020;-72
2024/01/25 08:29:24;;;;;;;16.20;3.13;;;9.60;78.40;;;;;;5091779;28;20024;-72
2024/01/25 08:31:49;;;;;;;11.75;2.25;;;9.60;76.30;;;;;;5092205;28;20383;-72
2024/01/25 08:34:15;;;;;;;11.57;2.72;;;9.60;75.50;;;;;;5091548;28;20024;-72
2024/01/25 08:36:41;;;;;;;13.93;2.90;;;9.60;75.40;;;;;;5092239;28;20032;-73
2024/01/25 08:39:08;;;;;;;14.45;3.47;;;9.70;74.80;;;;;;5091759;28;20456;-76
2024/01/25 08:41:34;;;;;;;11.88;2.45;;;9.60;73.40;;;;;;5092516;28;20020;-72
2024/01/25 08:44:00;;;;;;;11.05;2.70;;;9.70;72.40;;;;;;5091862;28;20461;-72
2024/01/25 08:46:26;;;;;;;16.80;2.88;;;9.70;71.90;;;;;;5091585;28;20430;-72
2024/01/25 08:48:51;;;;;;;15.52;2.95;;;9.70;70.90;;;;;;5091846;28;20378;-72
2024/01/25 08:51:17;;;;;;;15.70;2.95;;;9.70;70.90;;;;;;5091271;28;20097;-73
2024/01/25 08:53:43;;;;;;;14.40;2.65;;;9.70;70.30;;;;;;5092013;28;20028;-73
2024/01/25 08:56:08;;;;;;;16.95;4.15;;;9.80;71.00;;;;;;5091018;28;20028;-73
2024/01/25 08:58:34;;;;;;;15.95;3.72;;;9.80;71.40;;;;;;5092089;28;20027;-73
2024/01/25 09:01:00;;;;;;;13.23;2.80;;;9.80;72.20;;;;;;5091254;28;20119;-72
2024/01/25 09:03:26;;;;;;;15.18;2.95;;;9.80;73.90;;;;;;5091225;28;20024;-72
2024/01/25 09:05:52;;;;;;;19.35;3.45;;;9.80;74.80;;;;;;5092013;28;20058;-71
2024/01/25 09:08:18;;;;;;;21.27;3.47;;;9.80;75.40;;;;;;5091462;28;20111;-72
2024/01/25 09:10:44;;;;;;;14.27;2.90;;;9.80;76.20;;;;;;5091530;28;20016;-72
2024/01/25 09:13:10;;;;;;;13.98;3.00;;;9.80;76.60;;;;;;5091151;28;20462;-73
2024/01/25 09:15:36;;;;;;;18.08;3.03;;;9.80;76.80;;;;;;5091609;28;20118;-72
2024/01/25 09:18:02;;;;;;;12.77;2.50;;;9.90;77.30;;;;;;5091749;28;20024;-72
2024/01/25 09:20:27;;;;;;;14.30;2.80;;;9.90;77.90;;;;;;5090920;28;20043;-72
2024/01/25 09:22:56;;;;;;;12.35;3.05;;;10.00;77.70;;;;;;5091667;28;20027;-72
2024/01/25 09:25:22;;;;;;;13.93;3.60;;;10.00;77.70;;;;;;5090965;28;20108;-72
2024/01/25 09:27:47;;;;;;;18.02;3.03;;;10.00;77.50;;;;;;5094517;28;20415;-72
2024/01/25 09:30:14;;;;;;;14.95;3.15;;;10.00;77.30;;;;;;5095329;28;20027;-72
2024/01/25 09:32:39;;;;;;;19.42;6.38;;;10.00;77.00;;;;;;5095628;28;20039;-73
2024/01/25 09:35:05;;;;;;;14.45;3.22;;;10.10;77.00;;;;;;5095573;28;20021;-72
2024/01/25 09:37:31;;;;;;;15.85;3.40;;;10.10;76.70;;;;;;5094745;28;20139;-72
2024/01/25 09:39:58;;;;;;;14.85;3.35;;;10.10;76.70;;;;;;5094249;28;20108;-73
2024/01/25 09:42:24;;;;;;;17.80;4.20;;;10.10;75.80;;;;;;5094933;28;20040;-71
2024/01/25 09:44:53;;;;;;;11.75;2.75;;;10.20;76.10;;;;;;5094084;28;20375;-72
2024/01/25 09:47:21;;;;;;;12.63;2.67;;;10.30;76.20;;;;;;5095053;28;20031;-72
2024/01/25 09:49:46;;;;;;;15.65;3.20;;;10.40;75.80;;;;;;5095444;28;20020;-73
2024/01/25 09:52:13;;;;;;;11.57;2.60;;;10.50;74.40;;;;;;5094839;28;20397;-73
2024/01/25 09:54:39;;;;;;;15.90;2.80;;;10.60;73.50;;;;;;5095380;28;20032;-73
2024/01/25 09:57:31;;;;;;;16.08;3.67;;;10.70;73.20;;;;;;5095462;28;20035;-72
2024/01/25 09:59:57;;;;;;;12.77;4.20;;;10.80;73.90;;;;;;5103023;28;20040;-73
2024/01/25 10:02:22;;;;;;;13.60;3.13;;;10.90;73.70;;;;;;5115258;28;20479;-72
2024/01/25 10:04:52;;;;;;;13.05;2.70;;;10.90;73.50;;;;;;5115530;28;20030;-73
2024/01/25 10:07:36;;;;;;;18.48;3.50;;;10.90;73.40;;;;;;5114846;28;20032;-73
2024/01/25 10:10:02;;;;;;;11.82;2.70;;;10.90;73.80;;;;;;5115636;28;20043;-73
2024/01/25 10:12:27;;;;;;;19.92;3.10;;;11.00;73.70;;;;;;5113486;28;20063;-74
2024/01/25 10:14:53;;;;;;;12.50;3.10;;;11.10;72.20;;;;;;5113860;28;20172;-73
2024/01/25 10:17:18;;;;;;;14.30;2.95;;;11.10;71.60;;;;;;5114902;28;20034;-72
2024/01/25 10:19:44;;;;;;;18.42;3.75;;;11.10;72.00;;;;;;5115070;28;20034;-72
2024/01/25 10:22:12;;;;;;;11.80;3.17;;;11.00;71.90;;;;;;5113866;28;20027;-72
2024/01/25 10:24:40;;;;;;;11.82;3.17;;;11.00;72.50;;;;;;5115126;28;20049;-73
2024/01/25 10:27:06;;;;;;;14.32;2.97;;;10.90;72.80;;;;;;5115368;28;20032;-73
2024/01/25 10:29:33;;;;;;;13.63;3.13;;;10.80;73.80;;;;;;5107692;28;20369;-73
2024/01/25 10:31:59;;;;;;;13.77;3.88;;;10.70;74.40;;;;;;5094320;28;20476;-72
2024/01/25 10:34:26;;;;;;;12.15;2.90;;;10.70;75.00;;;;;;5094158;28;20036;-73
2024/01/25 10:36:52;;;;;;;13.75;4.10;;;10.60;75.40;;;;;;5094286;28;20032;-73
2024/01/25 10:39:20;;;;;;;15.20;3.60;;;10.60;75.50;;;;;;5091725;28;20402;-73
2024/01/25 10:41:50;;;;;;;15.43;3.42;;;10.60;75.90;;;;;;5094115;28;20103;-73
2024/01/25 10:44:19;;;;;;;13.25;2.90;;;10.50;76.30;;;;;;5093919;28;20028;-74
2024/01/25 10:46:48;;;;;;;17.02;3.40;;;10.50;76.30;;;;;;5092967;28;20082;-72
2024/01/25 10:49:15;;;;;;;16.25;3.03;;;10.50;76.70;;;;;;5092684;28;20413;-74
2024/01/25 10:51:41;;;;;;;12.93;3.50;;;10.50;76.90;;;;;;5094242;28;20055;-72
2024/01/25 10:54:10;;;;;;;13.13;3.60;;;10.50;77.10;;;;;;5094122;28;20032;-72
2024/01/25 10:56:37;;;;;;;14.68;3.65;;;10.60;77.20;;;;;;5093572;28;20035;-72
2024/01/25 10:59:03;;;;;;;18.05;3.40;;;10.60;76.50;;;;;;5093621;28;20558;-73
2024/01/25 11:01:29;;;;;;;15.60;3.70;;;10.60;76.00;;;;;;5093002;28;20048;-72
2024/01/25 11:03:54;;;;;;;15.05;3.10;;;10.60;75.20;;;;;;5092665;28;20024;-72
2024/01/25 11:06:22;;;;;;;16.45;3.17;;;10.60;75.60;;;;;;5092038;28;20028;-72
2024/01/25 11:08:47;;;;;;;16.00;3.60;;;10.60;75.20;;;;;;5093837;28;20081;-72
2024/01/25 11:11:14;;;;;;;15.68;3.42;;;10.60;75.20;;;;;;5093886;28;20024;-72
2024/01/25 11:13:44;;;;;;;17.15;3.25;;;10.60;74.70;;;;;;5093186;28;20379;-72
2024/01/25 11:16:28;;;;;;;10.50;3.10;;;10.50;74.50;;;;;;5093815;28;20370;-72
2024/01/25 11:19:07;;;;;;;11.18;2.53;;;10.50;74.20;;;;;;5093984;28;20372;-73
2024/01/25 11:21:49;;;;;;;19.05;3.17;;;10.50;74.20;;;;;;5092148;28;20421;-72
2024/01/25 11:24:21;;;;;;;13.40;2.92;;;10.50;74.00;;;;;;5093636;28;20544;-72
2024/01/25 11:26:47;;;;;;;14.80;3.20;;;10.60;73.80;;;;;;5093672;28;20035;-72
2024/01/25 11:29:17;;;;;;;11.95;3.15;;;10.60;72.50;;;;;;5091905;28;20142;-73
2024/01/25 11:31:44;;;;;;;16.85;3.42;;;10.60;72.70;;;;;;5093411;28;20023;-72
2024/01/25 11:34:11;;;;;;;17.20;3.30;;;10.70;72.50;;;;;;5093438;28;20123;-73
2024/01/25 11:36:37;;;;;;;14.43;2.85;;;10.80;71.50;;;;;;5093050;28;20123;-73
2024/01/25 11:39:03;;;;;;;11.35;3.05;;;10.80;71.40;;;;;;5093436;28;20016;-71
2024/01/25 11:41:31;;;;;;;17.42;3.15;;;10.80;70.90;;;;;;5092638;28;20032;-72
2024/01/25 11:43:56;;;;;;;13.68;3.63;;;10.80;70.90;;;;;;5093013;28;20098;-73
2024/01/25 11:46:23;;;;;;;12.05;3.97;;;10.90;71.30;;;;;;5092911;28;20119;-73
2024/01/25 11:48:49;;;;;;;14.50;3.25;;;10.80;70.80;;;;;;5091239;28;20069;-73
2024/01/25 11:51:14;;;;;;;16.92;3.10;;;10.80;71.20;;;;;;5092646;28;20024;-73
2024/01/25 11:53:41;;;;;;;17.98;3.97;;;10.90;70.90;;;;;;5092716;28;20046;-72
2024/01/25 11:56:09;;;;;;;18.10;3.70;;;10.80;71.10;;;;;;5093031;28;20028;-73
2024/01/25 11:58:37;;;;;;;14.63;3.22;;;10.90;71.50;;;;;;5092262;28;20017;-72
2024/01/25 12:01:07;;;;;;;16.55;3.17;;;10.90;71.10;;;;;;5092423;28;20044;-73
2024/01/25 12:03:35;;;;;;;15.63;3.78;;;10.90;70.70;;;;;;5100214;28;20503;-73
2024/01/25 12:06:01;;;;;;;13.10;3.05;;;11.00;70.50;;;;;;5112053;28;20070;-73
2024/01/25 12:08:27;;;;;;;11.70;3.33;;;11.10;70.40;;;;;;5111341;28;20046;-72
2024/01/25 12:11:06;;;;;;;14.77;3.25;;;11.10;69.30;;;;;;5112966;28;20527;-73
2024/01/25 12:13:33;;;;;;;15.20;3.53;;;11.10;68.00;;;;;;5112696;28;20016;-73
2024/01/25 12:16:00;;;;;;;14.82;3.95;;;11.10;67.80;;;;;;5112797;28;20035;-74
2024/01/25 12:18:26;;;;;;;14.38;3.28;;;11.10;67.60;;;;;;5112852;28;20026;-74
2024/01/25 12:20:52;;;;;;;20.20;4.20;;;11.00;68.00;;;;;;5111509;28;20483;-73
2024/01/25 12:23:17;;;;;;;16.13;3.00;;;11.10;68.10;;;;;;5112835;28;20028;-73
2024/01/25 12:25:44;;;;;;;15.00;2.83;;;11.10;68.10;;;;;;5112433;28;20024;-72
2024/01/25 12:28:10;;;;;;;16.50;3.38;;;11.10;68.30;;;;;;5112357;28;20030;-72
2024/01/25 12:30:36;;;;;;;12.40;2.88;;;11.10;68.40;;;;;;5112296;28;20020;-72
2024/01/25 12:33:03;;;;;;;20.98;4.05;;;11.10;67.60;;;;;;5112290;28;20440;-72
2024/01/25 12:35:28;;;;;;;14.52;3.42;;;11.10;67.50;;;;;;5092748;28;20024;-73